Terminal Aerodrome Forecast
Issued by NWS Sioux Falls, SD

Home | Current Version | Previous Version | Graphics & Text | Print | Product List | Glossary Off
Versions: 1 2 3 4 5 6 7 8 9 10 11 12 13 14 15 16 17

555
FTUS43 KFSD 302320
TAFFSD
TAF
KFSD 302320Z 0100/0124 03018G26KT 1 1/2SM RA OVC010
     FM010100 02017G24KT 1 1/2SM RASN OVC008
     FM010900 36016G24KT 1 1/2SM -SN OVC007
      TEMPO 0111/0114 1SM -SN
     FM011400 34017G25KT 3SM -SNRA OVC008
     FM011600 33018G25KT P6SM VCSH OVC010
     FM011800 34019G27KT P6SM OVC020
     FM012100 32018G26KT P6SM BKN035=

USA.gov is the U.S. government's official web portal to all federal, state and local government web resources and services.